createdAt,value
2018-06-14T00:00:46.507Z,62.46
2018-06-14T00:01:46.469Z,62.47
2018-06-14T00:02:46.561Z,62.46
2018-06-14T00:03:46.502Z,62.4
2018-06-14T00:04:46.620Z,62.45
2018-06-14T00:05:46.386Z,62.48
2018-06-14T00:06:46.451Z,62.43
2018-06-14T00:07:46.612Z,62.43
2018-06-14T00:08:46.576Z,62.39
2018-06-14T00:09:46.555Z,62.46
2018-06-14T00:10:46.562Z,62.4
2018-06-14T00:11:46.600Z,62.44
2018-06-14T00:12:46.669Z,62.41
2018-06-14T00:13:46.535Z,62.43
2018-06-14T00:14:46.592Z,62.41
2018-06-14T00:15:46.640Z,62.45
2018-06-14T00:16:46.440Z,62.37
2018-06-14T00:17:46.573Z,62.46
2018-06-14T00:18:46.549Z,62.44
2018-06-14T00:19:46.461Z,62.51
2018-06-14T00:20:46.758Z,62.48
2018-06-14T00:21:46.380Z,62.43
2018-06-14T00:22:46.557Z,62.48
2018-06-14T00:23:46.592Z,62.45
2018-06-14T00:24:46.800Z,62.42
2018-06-14T00:25:46.368Z,62.43
2018-06-14T00:26:46.593Z,62.43
2018-06-14T00:27:46.477Z,62.51
2018-06-14T00:28:46.514Z,62.62
2018-06-14T00:29:46.546Z,62.65
2018-06-14T00:30:46.819Z,62.7
2018-06-14T00:31:46.514Z,62.57
2018-06-14T00:32:46.531Z,62.58
2018-06-14T00:33:46.802Z,62.59
2018-06-14T00:34:46.495Z,62.56
2018-06-14T00:35:46.537Z,62.53
2018-06-14T00:36:46.537Z,62.53
2018-06-14T00:37:46.689Z,62.51
2018-06-14T00:38:46.853Z,62.58
2018-06-14T00:39:46.452Z,62.61
2018-06-14T00:40:46.502Z,62.52
2018-06-14T00:41:46.511Z,62.48
2018-06-14T00:42:46.603Z,62.49
2018-06-14T00:43:46.456Z,62.43
2018-06-14T00:44:46.514Z,62.52
2018-06-14T00:45:46.582Z,62.5
2018-06-14T00:46:46.674Z,62.46
2018-06-14T00:47:46.561Z,62.52
2018-06-14T00:48:46.469Z,62.56
2018-06-14T00:49:46.701Z,62.5
2018-06-14T00:50:46.762Z,62.54
2018-06-14T00:51:46.483Z,62.52
2018-06-14T00:52:56.411Z,62.59
2018-06-14T00:53:46.697Z,62.54
2018-06-14T00:54:46.451Z,62.59
2018-06-14T00:55:46.634Z,62.62
2018-06-14T00:56:46.652Z,62.6
2018-06-14T00:57:46.419Z,62.56
2018-06-14T00:58:46.590Z,62.58
2018-06-14T00:59:46.498Z,62.51
2018-06-14T01:00:46.537Z,62.53
2018-06-14T01:01:46.572Z,62.58
2018-06-14T01:02:46.627Z,62.56
2018-06-14T01:03:46.609Z,62.59
2018-06-14T01:04:46.671Z,62.54
2018-06-14T01:05:46.432Z,62.57
2018-06-14T01:06:46.688Z,62.55
2018-06-14T01:07:46.586Z,62.58
2018-06-14T01:08:46.576Z,62.52
2018-06-14T01:09:46.412Z,62.58
2018-06-14T01:10:46.611Z,62.53
2018-06-14T01:11:46.619Z,62.52
2018-06-14T01:12:46.694Z,62.48
2018-06-14T01:13:46.357Z,62.57
2018-06-14T01:14:46.425Z,62.6
2018-06-14T01:15:46.565Z,62.61
2018-06-14T01:16:46.450Z,62.6
2018-06-14T01:17:46.628Z,62.62
2018-06-14T01:18:46.488Z,62.58
2018-06-14T01:19:46.644Z,62.58
2018-06-14T01:20:46.531Z,62.61
2018-06-14T01:21:46.434Z,62.55
2018-06-14T01:22:46.388Z,62.58
2018-06-14T01:23:46.514Z,62.6
2018-06-14T01:24:46.516Z,62.58
2018-06-14T01:25:46.557Z,62.65
2018-06-14T01:26:46.697Z,62.74
2018-06-14T01:27:46.457Z,62.72
2018-06-14T01:28:46.991Z,62.6
2018-06-14T01:29:46.571Z,62.55
2018-06-14T01:30:46.581Z,62.51
2018-06-14T01:31:46.439Z,62.53
2018-06-14T01:32:46.456Z,62.51
2018-06-14T01:33:46.542Z,62.56
2018-06-14T01:34:46.653Z,62.52
2018-06-14T01:35:46.658Z,62.59
2018-06-14T01:36:46.542Z,62.51
2018-06-14T01:37:46.644Z,62.59
2018-06-14T01:38:46.480Z,62.51
2018-06-14T01:39:46.615Z,62.56
2018-06-14T01:40:46.431Z,62.6
2018-06-14T01:41:47.170Z,62.69
2018-06-14T01:42:46.529Z,62.75
2018-06-14T01:43:46.648Z,62.75
2018-06-14T01:44:46.470Z,62.68
2018-06-14T01:45:46.551Z,62.6
2018-06-14T01:46:46.378Z,62.55
2018-06-14T01:47:46.568Z,62.53
2018-06-14T01:48:46.472Z,62.48
2018-06-14T01:49:46.335Z,62.58
2018-06-14T01:50:46.487Z,62.59
2018-06-14T01:51:46.545Z,62.62
2018-06-14T01:52:46.586Z,62.56
2018-06-14T01:53:46.608Z,62.47
2018-06-14T01:54:46.400Z,62.56
2018-06-14T01:55:46.472Z,62.5
2018-06-14T01:56:46.808Z,62.5
2018-06-14T01:57:46.428Z,62.57
2018-06-14T01:58:46.498Z,62.59
2018-06-14T01:59:46.486Z,62.71
2018-06-14T02:00:46.520Z,62.68
2018-06-14T02:01:46.379Z,62.64
2018-06-14T02:02:46.770Z,62.56
2018-06-14T02:03:46.565Z,62.6
2018-06-14T02:04:46.393Z,62.56
2018-06-14T02:05:46.662Z,62.54
2018-06-14T02:06:46.562Z,62.54
2018-06-14T02:07:46.419Z,62.57
2018-06-14T02:08:46.447Z,62.53
2018-06-14T02:09:46.473Z,62.49
2018-06-14T02:10:46.593Z,62.53
2018-06-14T02:11:46.541Z,62.54
2018-06-14T02:12:46.474Z,62.52
2018-06-14T02:13:46.512Z,62.58
2018-06-14T02:14:46.583Z,62.54
2018-06-14T02:15:46.517Z,62.57
2018-06-14T02:16:46.495Z,62.53
2018-06-14T02:17:46.404Z,62.55
2018-06-14T02:18:46.569Z,62.52
2018-06-14T02:19:46.603Z,62.55
2018-06-14T02:20:46.450Z,62.5
2018-06-14T02:21:46.529Z,62.5
2018-06-14T02:22:46.497Z,62.54
2018-06-14T02:23:46.523Z,62.66
2018-06-14T02:24:46.537Z,62.65
2018-06-14T02:25:46.465Z,62.77
2018-06-14T02:26:46.447Z,62.67
2018-06-14T02:27:46.640Z,62.71
2018-06-14T02:28:46.486Z,62.65
2018-06-14T02:29:46.482Z,62.64
2018-06-14T02:30:46.508Z,62.59
2018-06-14T02:31:46.544Z,62.59
2018-06-14T02:32:46.540Z,62.55
2018-06-14T02:33:46.484Z,62.61
2018-06-14T02:34:46.365Z,62.59
2018-06-14T02:35:46.473Z,62.64
2018-06-14T02:36:46.651Z,62.62
2018-06-14T02:37:46.804Z,62.59
2018-06-14T02:38:46.807Z,62.65
2018-06-14T02:39:46.575Z,62.65
2018-06-14T02:40:46.515Z,62.62
2018-06-14T02:41:46.543Z,62.64
2018-06-14T02:42:46.476Z,62.68
2018-06-14T02:43:46.483Z,62.57
2018-06-14T02:44:46.716Z,62.55
2018-06-14T02:45:46.511Z,62.52
2018-06-14T02:46:46.386Z,62.56
2018-06-14T02:47:46.479Z,62.53
2018-06-14T02:48:46.415Z,62.53
2018-06-14T02:49:46.535Z,62.52
2018-06-14T02:50:46.584Z,62.52
2018-06-14T02:51:46.583Z,62.52
2018-06-14T02:52:46.579Z,62.56
2018-06-14T02:53:46.440Z,62.55
2018-06-14T02:54:46.536Z,62.48
2018-06-14T02:55:46.520Z,62.48
2018-06-14T02:56:46.647Z,62.45
2018-06-14T02:57:46.417Z,62.45
2018-06-14T02:58:46.520Z,62.44
2018-06-14T02:59:46.489Z,62.46
2018-06-14T03:00:46.431Z,62.5
2018-06-14T03:01:46.556Z,62.57
2018-06-14T03:02:46.643Z,62.53
2018-06-14T03:03:56.500Z,62.57
2018-06-14T03:04:46.741Z,62.52
2018-06-14T03:05:46.722Z,62.47
2018-06-14T03:06:46.569Z,62.5
2018-06-14T03:07:46.756Z,62.43
2018-06-14T03:08:46.271Z,62.45
2018-06-14T03:09:46.394Z,62.42
2018-06-14T03:10:46.567Z,62.52
2018-06-14T03:11:46.581Z,62.54
2018-06-14T03:12:46.583Z,62.46
2018-06-14T03:13:46.483Z,62.5
2018-06-14T03:14:46.535Z,62.43
2018-06-14T03:15:46.485Z,62.4
2018-06-14T03:16:46.624Z,62.41
2018-06-14T03:17:46.689Z,62.37
2018-06-14T03:18:46.519Z,62.44
2018-06-14T03:19:46.541Z,62.37
2018-06-14T03:20:46.551Z,62.44
2018-06-14T03:21:46.539Z,62.39
2018-06-14T03:22:46.547Z,62.42
2018-06-14T03:23:46.393Z,62.46
2018-06-14T03:24:46.379Z,62.48
2018-06-14T03:25:46.800Z,62.45
2018-06-14T03:26:46.344Z,62.45
2018-06-14T03:27:46.550Z,62.41
2018-06-14T03:28:46.649Z,62.49
2018-06-14T03:29:46.501Z,62.48
2018-06-14T03:30:46.470Z,62.47
2018-06-14T03:31:46.417Z,62.44
2018-06-14T03:32:46.347Z,62.48
2018-06-14T03:33:46.457Z,62.45
2018-06-14T03:34:46.601Z,62.46
2018-06-14T03:35:46.591Z,62.42
2018-06-14T03:36:46.430Z,62.44
2018-06-14T03:37:46.561Z,62.48
2018-06-14T03:38:46.367Z,62.43
2018-06-14T03:39:46.559Z,62.46
2018-06-14T03:40:47.125Z,62.41
2018-06-14T03:41:46.512Z,62.37
2018-06-14T03:42:46.403Z,62.36
2018-06-14T03:43:46.580Z,62.37
2018-06-14T03:44:46.354Z,62.34
2018-06-14T03:45:46.499Z,62.44
2018-06-14T03:46:46.533Z,62.48
2018-06-14T03:47:46.732Z,62.4
2018-06-14T03:48:46.439Z,62.35
2018-06-14T03:49:46.655Z,62.35
2018-06-14T03:50:46.684Z,62.4
2018-06-14T03:51:46.360Z,62.36
2018-06-14T03:52:46.648Z,62.4
2018-06-14T03:53:46.391Z,62.37
2018-06-14T03:54:46.553Z,62.4
2018-06-14T03:55:46.354Z,62.37
2018-06-14T03:56:46.471Z,62.4
2018-06-14T03:57:46.484Z,62.44
2018-06-14T03:58:46.555Z,62.42
2018-06-14T03:59:46.440Z,62.42
2018-06-14T04:00:46.339Z,62.4
2018-06-14T04:01:46.553Z,62.4
2018-06-14T04:02:46.505Z,62.34
2018-06-14T04:03:46.572Z,62.4
2018-06-14T04:04:46.433Z,62.34
2018-06-14T04:05:46.627Z,62.39
2018-06-14T04:06:46.482Z,62.36
2018-06-14T04:07:46.534Z,62.43
2018-06-14T04:08:46.504Z,62.46
2018-06-14T04:09:46.332Z,62.4
2018-06-14T04:10:46.467Z,62.4
2018-06-14T04:11:46.451Z,62.38
2018-06-14T04:12:46.479Z,62.35
2018-06-14T04:13:46.572Z,62.35
2018-06-14T04:14:46.485Z,62.42
2018-06-14T04:15:46.534Z,62.36
2018-06-14T04:16:46.607Z,62.41
2018-06-14T04:17:46.638Z,62.5
2018-06-14T04:18:46.632Z,62.42
2018-06-14T04:19:46.607Z,62.47
2018-06-14T04:20:46.604Z,62.42
2018-06-14T04:21:46.522Z,62.53
2018-06-14T04:22:46.592Z,62.49
2018-06-14T04:23:46.556Z,62.45
2018-06-14T04:24:46.557Z,62.41
2018-06-14T04:25:46.435Z,62.39
2018-06-14T04:26:46.540Z,62.38
2018-06-14T04:27:56.565Z,62.38
2018-06-14T04:28:46.679Z,62.37
2018-06-14T04:29:46.486Z,62.38
2018-06-14T04:30:46.395Z,62.43
2018-06-14T04:31:46.539Z,62.46
2018-06-14T04:32:46.446Z,62.47
2018-06-14T04:33:46.520Z,62.38
2018-06-14T04:34:46.393Z,62.43
2018-06-14T04:35:46.501Z,62.36
2018-06-14T04:36:46.566Z,62.45
2018-06-14T04:37:46.641Z,62.42
2018-06-14T04:38:46.427Z,62.46
2018-06-14T04:39:46.545Z,62.4
2018-06-14T04:40:46.412Z,62.37
2018-06-14T04:41:46.348Z,62.39
2018-06-14T04:42:46.298Z,62.43
2018-06-14T04:43:46.488Z,62.45
2018-06-14T04:44:46.575Z,62.46
2018-06-14T04:45:46.894Z,62.46
2018-06-14T04:46:46.487Z,62.43
2018-06-14T04:47:46.353Z,62.42
2018-06-14T04:48:46.487Z,62.41
2018-06-14T04:49:46.375Z,62.41
2018-06-14T04:50:46.335Z,62.39
2018-06-14T04:51:46.486Z,62.48
2018-06-14T04:52:46.348Z,62.51
2018-06-14T04:53:46.371Z,62.59
2018-06-14T04:54:46.433Z,62.62
2018-06-14T04:55:46.573Z,62.68
2018-06-14T04:56:46.394Z,62.61
2018-06-14T04:57:46.515Z,62.6
2018-06-14T04:58:46.704Z,62.58
2018-06-14T04:59:46.356Z,62.46
2018-06-14T05:00:46.467Z,62.43
2018-06-14T05:01:46.739Z,62.42
2018-06-14T05:02:46.768Z,62.59
2018-06-14T05:03:46.370Z,62.58
2018-06-14T05:04:46.570Z,62.51
2018-06-14T05:05:46.944Z,62.46
2018-06-14T05:06:46.432Z,62.41
2018-06-14T05:07:46.391Z,62.41
2018-06-14T05:08:46.528Z,62.41
2018-06-14T05:09:46.747Z,62.42
2018-06-14T05:10:46.385Z,62.44
2018-06-14T05:11:46.475Z,62.47
2018-06-14T05:12:46.560Z,62.42
2018-06-14T05:13:47.110Z,62.44
2018-06-14T05:14:46.508Z,62.5
2018-06-14T05:15:46.352Z,62.44
2018-06-14T05:16:46.616Z,62.43
2018-06-14T05:17:46.437Z,62.45
2018-06-14T05:18:46.548Z,62.45
2018-06-14T05:20:01.843Z,62.5
2018-06-14T05:20:46.417Z,62.45
2018-06-14T05:21:46.387Z,62.41
2018-06-14T05:22:46.761Z,62.42
2018-06-14T05:23:46.609Z,62.5
2018-06-14T05:24:56.470Z,62.51
2018-06-14T05:25:46.663Z,62.48
2018-06-14T05:26:46.531Z,62.45
2018-06-14T05:27:46.433Z,62.44
2018-06-14T05:28:46.546Z,62.46
2018-06-14T05:29:46.318Z,62.47
2018-06-14T05:30:46.399Z,62.37
2018-06-14T05:31:46.490Z,62.43
2018-06-14T05:32:46.360Z,62.37
2018-06-14T05:33:46.664Z,62.39
2018-06-14T05:34:46.480Z,62.35
2018-06-14T05:35:46.552Z,62.39
2018-06-14T05:36:46.406Z,62.36
2018-06-14T05:37:46.611Z,62.41
2018-06-14T05:38:46.603Z,62.46
2018-06-14T05:39:46.337Z,62.49
2018-06-14T05:40:46.456Z,62.47
2018-06-14T05:41:46.402Z,62.42
2018-06-14T05:42:46.726Z,62.4
2018-06-14T05:43:46.661Z,62.4
2018-06-14T05:44:46.423Z,62.49
2018-06-14T05:45:46.325Z,62.41
2018-06-14T05:46:46.590Z,62.39
2018-06-14T05:47:46.946Z,62.35
2018-06-14T05:48:46.462Z,62.47
2018-06-14T05:49:46.473Z,62.53
2018-06-14T05:50:46.580Z,62.55
2018-06-14T05:51:46.420Z,62.62
2018-06-14T05:52:46.389Z,62.65
2018-06-14T05:53:46.483Z,62.71
2018-06-14T05:54:46.347Z,62.76
2018-06-14T05:55:46.345Z,62.62
2018-06-14T05:56:46.475Z,62.7
2018-06-14T05:57:46.449Z,62.83
2018-06-14T05:58:46.279Z,62.81
2018-06-14T05:59:46.346Z,62.8
2018-06-14T06:00:46.341Z,62.76
2018-06-14T06:01:46.429Z,62.66
2018-06-14T06:02:47.015Z,62.72
2018-06-14T06:03:46.363Z,62.67
2018-06-14T06:04:46.557Z,62.65
2018-06-14T06:05:46.392Z,62.64
2018-06-14T06:06:46.460Z,62.67
2018-06-14T06:07:46.386Z,62.64
2018-06-14T06:08:46.424Z,62.69
2018-06-14T06:09:46.434Z,62.7
2018-06-14T06:10:46.427Z,62.67
2018-06-14T06:11:46.405Z,62.67
2018-06-14T06:12:46.347Z,62.67
2018-06-14T06:13:46.578Z,62.68
2018-06-14T06:14:46.386Z,62.67
2018-06-14T06:15:46.531Z,62.68
2018-06-14T06:16:46.392Z,62.66
2018-06-14T06:17:46.513Z,62.62
2018-06-14T06:18:46.560Z,62.64
2018-06-14T06:19:46.993Z,62.68
2018-06-14T06:20:46.458Z,62.63
2018-06-14T06:21:46.338Z,62.65
2018-06-14T06:22:46.465Z,62.67
2018-06-14T06:23:46.492Z,62.62
2018-06-14T06:24:46.424Z,62.68
2018-06-14T06:25:46.388Z,62.62
2018-06-14T06:26:46.707Z,62.61
2018-06-14T06:27:46.585Z,62.63
2018-06-14T06:28:46.369Z,62.54
2018-06-14T06:29:46.540Z,62.5
2018-06-14T06:30:46.314Z,62.5
2018-06-14T06:31:46.538Z,62.5
2018-06-14T06:32:46.413Z,62.56
2018-06-14T06:33:46.629Z,62.55
2018-06-14T06:34:46.587Z,62.65
2018-06-14T06:35:46.442Z,62.68
2018-06-14T06:36:46.653Z,62.64
2018-06-14T06:37:46.522Z,62.66
2018-06-14T06:38:47.194Z,62.67
2018-06-14T06:39:46.411Z,62.49
2018-06-14T06:40:46.532Z,62.61
2018-06-14T06:41:46.515Z,62.62
2018-06-14T06:42:46.493Z,62.67
2018-06-14T06:43:47.257Z,62.65
2018-06-14T06:44:46.510Z,62.62
2018-06-14T06:45:46.402Z,62.65
2018-06-14T06:46:46.527Z,62.63
2018-06-14T06:47:46.666Z,62.58
2018-06-14T06:48:56.356Z,62.54
2018-06-14T06:49:46.471Z,62.56
2018-06-14T06:50:46.339Z,62.53
2018-06-14T06:51:46.344Z,62.53
2018-06-14T06:52:46.555Z,62.53
2018-06-14T06:53:46.380Z,62.53
2018-06-14T06:54:46.541Z,62.59
2018-06-14T06:55:46.433Z,62.64
2018-06-14T06:56:46.480Z,62.67
2018-06-14T06:57:46.639Z,62.59
2018-06-14T06:58:46.821Z,62.57
2018-06-14T06:59:46.444Z,62.52
2018-06-14T07:00:46.526Z,62.51
2018-06-14T07:01:46.372Z,62.53
2018-06-14T07:02:46.541Z,62.53
2018-06-14T07:03:46.347Z,62.53
2018-06-14T07:04:46.456Z,62.56
2018-06-14T07:05:46.477Z,62.65
2018-06-14T07:06:46.609Z,62.51
2018-06-14T07:07:46.498Z,62.58
2018-06-14T07:08:46.510Z,62.51
2018-06-14T07:09:56.371Z,62.47
2018-06-14T07:10:46.437Z,62.59
2018-06-14T07:11:46.594Z,62.5
2018-06-14T07:12:46.476Z,62.46
2018-06-14T07:13:46.523Z,62.5
2018-06-14T07:14:46.332Z,62.46
2018-06-14T07:15:46.323Z,62.47
2018-06-14T07:16:46.528Z,62.44
2018-06-14T07:17:46.438Z,62.38
2018-06-14T07:18:46.607Z,62.4
2018-06-14T07:19:46.540Z,62.45
2018-06-14T07:20:46.541Z,62.4
2018-06-14T07:21:47.293Z,62.37
2018-06-14T07:22:46.458Z,62.4
2018-06-14T07:23:46.442Z,62.43
2018-06-14T07:24:46.510Z,62.41
2018-06-14T07:25:46.436Z,62.48
2018-06-14T07:26:46.483Z,62.53
2018-06-14T07:27:46.938Z,62.53
2018-06-14T07:28:46.429Z,62.51
2018-06-14T07:29:46.367Z,62.59
2018-06-14T07:30:46.330Z,62.59
2018-06-14T07:31:46.451Z,62.63
2018-06-14T07:32:46.312Z,62.65
2018-06-14T07:33:46.532Z,62.7
2018-06-14T07:34:46.532Z,62.69
2018-06-14T07:35:46.559Z,62.74
2018-06-14T07:36:46.463Z,62.7
2018-06-14T07:37:46.503Z,62.68
2018-06-14T07:38:46.302Z,62.73
2018-06-14T07:39:46.498Z,62.71
2018-06-14T07:40:46.551Z,62.69
2018-06-14T07:41:46.545Z,62.78
2018-06-14T07:42:46.514Z,62.78
2018-06-14T07:43:46.500Z,62.76
2018-06-14T07:44:46.404Z,62.78
2018-06-14T07:45:46.476Z,62.75
2018-06-14T07:46:46.287Z,62.71
2018-06-14T07:47:46.349Z,62.71
2018-06-14T07:48:46.310Z,62.74
2018-06-14T07:49:46.479Z,62.76
2018-06-14T07:50:46.363Z,62.84
2018-06-14T07:51:46.573Z,62.77
2018-06-14T07:52:46.529Z,62.78
2018-06-14T07:53:46.361Z,62.66
2018-06-14T07:54:46.399Z,62.68
2018-06-14T07:55:46.448Z,62.77
2018-06-14T07:56:46.484Z,62.81
2018-06-14T07:57:46.372Z,62.84
2018-06-14T07:58:46.312Z,62.82
2018-06-14T07:59:46.395Z,62.95
2018-06-14T08:00:46.495Z,62.97
2018-06-14T08:01:46.468Z,62.91
2018-06-14T08:02:46.530Z,62.93
2018-06-14T08:03:46.490Z,62.93
2018-06-14T08:04:46.337Z,62.99
2018-06-14T08:05:46.396Z,63.01
2018-06-14T08:06:46.326Z,62.94
2018-06-14T08:07:46.392Z,62.91
2018-06-14T08:08:56.382Z,62.91
2018-06-14T08:09:46.361Z,62.85
2018-06-14T08:10:46.605Z,62.93
2018-06-14T08:11:46.510Z,62.91
2018-06-14T08:12:46.856Z,62.92
2018-06-14T08:13:46.269Z,62.92
2018-06-14T08:14:46.524Z,62.97
2018-06-14T08:15:46.492Z,62.96
2018-06-14T08:16:46.452Z,63
2018-06-14T08:17:46.450Z,63.05
2018-06-14T08:18:46.469Z,63
2018-06-14T08:19:46.311Z,62.99
2018-06-14T08:20:46.366Z,62.95
2018-06-14T08:21:46.298Z,62.95
2018-06-14T08:22:46.376Z,62.95
2018-06-14T08:23:46.464Z,62.91
2018-06-14T08:24:46.482Z,62.86
2018-06-14T08:25:46.606Z,62.85
2018-06-14T08:26:46.448Z,62.9
2018-06-14T08:27:46.345Z,62.91
2018-06-14T08:28:46.472Z,62.88
2018-06-14T08:29:46.315Z,62.93
2018-06-14T08:30:46.507Z,62.93
2018-06-14T08:31:46.346Z,62.92
2018-06-14T08:32:46.571Z,62.9
2018-06-14T08:33:46.485Z,62.94
2018-06-14T08:34:46.439Z,62.92
2018-06-14T08:35:46.446Z,62.95
2018-06-14T08:36:46.325Z,62.8
2018-06-14T08:37:46.403Z,62.87
2018-06-14T08:38:46.390Z,62.88
2018-06-14T08:39:46.429Z,62.94
2018-06-14T08:40:46.455Z,62.84
2018-06-14T08:41:46.487Z,62.84
2018-06-14T08:42:46.367Z,62.81
2018-06-14T08:43:46.420Z,62.8
2018-06-14T08:44:46.963Z,62.85
2018-06-14T08:45:46.500Z,62.8
2018-06-14T08:46:47.436Z,62.78
2018-06-14T08:47:46.418Z,62.76
2018-06-14T08:48:46.501Z,62.66
2018-06-14T08:49:46.287Z,62.68
2018-06-14T08:50:46.431Z,62.66
2018-06-14T08:51:46.392Z,62.63
2018-06-14T08:52:46.582Z,62.67
2018-06-14T08:53:46.597Z,62.69
2018-06-14T08:54:46.480Z,62.67
2018-06-14T08:55:46.300Z,62.69
2018-06-14T08:56:46.320Z,62.71
2018-06-14T08:57:47.141Z,62.75
2018-06-14T08:58:46.518Z,62.77
2018-06-14T08:59:46.428Z,62.84
2018-06-14T09:00:46.471Z,62.81
2018-06-14T09:01:46.425Z,62.81
2018-06-14T09:02:46.531Z,62.83
2018-06-14T09:03:46.529Z,62.8
2018-06-14T09:04:46.546Z,62.8
2018-06-14T09:05:46.378Z,62.85
2018-06-14T09:06:46.503Z,62.85
2018-06-14T09:07:46.622Z,62.88
2018-06-14T09:08:46.364Z,62.89
2018-06-14T09:09:47.139Z,62.89
2018-06-14T09:10:46.363Z,62.89
2018-06-14T09:11:46.467Z,62.83
2018-06-14T09:12:47.163Z,62.77
2018-06-14T09:13:46.611Z,62.78
2018-06-14T09:14:46.753Z,62.77
2018-06-14T09:15:46.905Z,62.71
2018-06-14T09:16:46.697Z,62.75
2018-06-14T09:17:46.698Z,62.69
2018-06-14T09:18:46.791Z,62.77
2018-06-14T09:19:46.711Z,62.72
2018-06-14T09:20:46.832Z,62.72
2018-06-14T09:21:46.975Z,62.72
2018-06-14T09:22:46.713Z,62.64
2018-06-14T09:23:46.645Z,62.65
2018-06-14T09:24:46.883Z,62.65
2018-06-14T09:25:47.090Z,62.67
2018-06-14T09:26:47.049Z,62.67
2018-06-14T09:27:47.014Z,62.69
2018-06-14T09:28:46.721Z,62.72
2018-06-14T09:29:46.849Z,62.7
2018-06-14T09:30:49.470Z,62.7
2018-06-14T09:31:46.894Z,62.67
2018-06-14T09:32:46.548Z,62.73
2018-06-14T09:33:47.000Z,62.59
2018-06-14T09:34:46.679Z,62.68
2018-06-14T09:35:47.347Z,62.69
2018-06-14T09:36:46.703Z,62.74
2018-06-14T09:37:46.768Z,62.74
2018-06-14T09:38:46.756Z,62.75
2018-06-14T09:39:46.702Z,62.74
2018-06-14T09:40:46.758Z,62.82
2018-06-14T09:41:46.976Z,62.75
2018-06-14T09:42:47.363Z,62.78
2018-06-14T09:43:46.654Z,62.79
2018-06-14T09:44:48.984Z,62.85
2018-06-14T09:45:47.794Z,62.86
2018-06-14T09:46:46.726Z,62.8
2018-06-14T09:47:49.226Z,62.76
2018-06-14T09:48:47.033Z,62.82
2018-06-14T09:49:47.062Z,62.87
2018-06-14T09:50:46.918Z,62.87
2018-06-14T09:51:47.007Z,62.91
2018-06-14T09:52:47.033Z,62.86
2018-06-14T09:53:46.522Z,62.88
2018-06-14T09:54:46.466Z,62.93
2018-06-14T09:55:46.378Z,63
2018-06-14T09:56:46.620Z,63.03
2018-06-14T09:57:46.341Z,63
2018-06-14T09:58:46.553Z,62.96
2018-06-14T09:59:46.326Z,62.85
2018-06-14T10:00:46.294Z,62.88
2018-06-14T10:01:46.471Z,62.9
2018-06-14T10:02:46.429Z,62.86
2018-06-14T10:03:46.537Z,62.89
2018-06-14T10:04:46.492Z,62.88
2018-06-14T10:05:46.473Z,62.89
2018-06-14T10:06:46.383Z,62.85
2018-06-14T10:07:46.412Z,62.84
2018-06-14T10:08:46.369Z,62.9
2018-06-14T10:09:46.407Z,62.86
2018-06-14T10:10:46.351Z,62.85
2018-06-14T10:11:46.458Z,62.83
2018-06-14T10:12:46.468Z,62.85
2018-06-14T10:13:46.521Z,62.78
2018-06-14T10:14:46.396Z,62.76
2018-06-14T10:15:46.470Z,62.77
2018-06-14T10:16:46.343Z,62.81
2018-06-14T10:17:46.398Z,62.89
2018-06-14T10:18:47.118Z,62.91
2018-06-14T10:19:46.428Z,62.93
2018-06-14T10:20:46.455Z,62.94
2018-06-14T10:21:47.169Z,62.91
2018-06-14T10:22:46.262Z,62.87
2018-06-14T10:23:46.312Z,62.87
2018-06-14T10:24:46.504Z,62.85
2018-06-14T10:25:46.481Z,62.83
2018-06-14T10:26:46.230Z,62.86
2018-06-14T10:27:46.263Z,62.85
2018-06-14T10:28:46.370Z,62.87
2018-06-14T10:29:46.459Z,62.85
2018-06-14T10:30:46.507Z,62.87
2018-06-14T10:31:46.321Z,62.88
2018-06-14T10:32:46.452Z,62.91
2018-06-14T10:33:46.327Z,62.86
2018-06-14T10:34:46.419Z,62.84
2018-06-14T10:35:46.199Z,62.85
2018-06-14T10:36:46.426Z,62.8
2018-06-14T10:37:46.297Z,62.8
2018-06-14T10:38:46.293Z,62.78
2018-06-14T10:39:46.341Z,62.76
2018-06-14T10:40:46.589Z,62.8
2018-06-14T10:41:46.437Z,62.82
2018-06-14T10:42:46.313Z,62.8
2018-06-14T10:43:46.478Z,62.85
2018-06-14T10:44:46.221Z,62.82
2018-06-14T10:45:46.576Z,62.84
2018-06-14T10:46:46.440Z,62.78
2018-06-14T10:47:46.373Z,62.73
2018-06-14T10:48:46.272Z,62.71
2018-06-14T10:49:46.335Z,62.84
2018-06-14T10:50:46.330Z,62.91
2018-06-14T10:51:46.396Z,62.97
2018-06-14T10:52:46.320Z,62.93
2018-06-14T10:53:46.340Z,63.01
2018-06-14T10:54:46.506Z,62.87
2018-06-14T10:55:46.510Z,62.94
2018-06-14T10:56:46.403Z,62.99
2018-06-14T10:57:46.411Z,62.99
2018-06-14T10:58:46.222Z,63.02
2018-06-14T10:59:46.516Z,62.92
2018-06-14T11:00:46.485Z,62.97
2018-06-14T11:01:46.478Z,63.01
2018-06-14T11:02:46.427Z,63.05
2018-06-14T11:03:46.438Z,62.95
2018-06-14T11:04:46.491Z,63
2018-06-14T11:05:46.453Z,63.03
2018-06-14T11:06:46.417Z,62.94
2018-06-14T11:07:46.502Z,62.91
2018-06-14T11:08:46.374Z,62.95
2018-06-14T11:09:46.377Z,63.01
2018-06-14T11:10:46.454Z,63.13
2018-06-14T11:11:46.408Z,63.07
2018-06-14T11:12:46.443Z,63
2018-06-14T11:13:46.291Z,63
2018-06-14T11:14:46.863Z,62.99
2018-06-14T11:15:46.517Z,62.99
2018-06-14T11:16:46.566Z,62.94
2018-06-14T11:17:46.537Z,62.98
2018-06-14T11:18:46.471Z,62.97
2018-06-14T11:19:46.417Z,62.91
2018-06-14T11:20:46.406Z,62.94
2018-06-14T11:21:46.511Z,62.92
2018-06-14T11:22:46.548Z,62.86
2018-06-14T11:23:46.531Z,62.88
2018-06-14T11:24:46.312Z,62.91
2018-06-14T11:25:46.431Z,62.99
2018-06-14T11:26:46.269Z,62.87
2018-06-14T11:27:46.380Z,62.8
2018-06-14T11:28:46.517Z,62.85
2018-06-14T11:29:46.330Z,62.75
2018-06-14T11:30:46.625Z,62.82
2018-06-14T11:31:46.474Z,62.78
2018-06-14T11:32:46.411Z,62.76
2018-06-14T11:33:46.326Z,62.78
2018-06-14T11:34:46.309Z,62.82
2018-06-14T11:35:46.395Z,62.83
2018-06-14T11:36:46.356Z,62.77
2018-06-14T11:37:46.561Z,62.82
2018-06-14T11:38:46.386Z,62.78
2018-06-14T11:39:46.522Z,62.75
2018-06-14T11:40:46.336Z,62.7
2018-06-14T11:41:46.496Z,62.69
2018-06-14T11:42:46.212Z,62.62
2018-06-14T11:43:46.556Z,62.68
2018-06-14T11:44:46.418Z,62.72
2018-06-14T11:45:46.524Z,62.74
2018-06-14T11:46:46.493Z,62.78
2018-06-14T11:47:46.407Z,62.75
2018-06-14T11:48:46.515Z,62.68
2018-06-14T11:49:46.552Z,62.72
2018-06-14T11:50:46.324Z,62.72
2018-06-14T11:51:46.255Z,62.71
2018-06-14T11:52:46.225Z,62.65
2018-06-14T11:53:46.475Z,62.74
2018-06-14T11:54:46.621Z,62.74
2018-06-14T11:55:46.348Z,62.69
2018-06-14T11:56:46.467Z,62.76
2018-06-14T11:57:46.374Z,62.75
2018-06-14T11:58:46.296Z,62.75
2018-06-14T11:59:46.288Z,62.75
2018-06-14T12:00:46.235Z,62.75
2018-06-14T12:01:47.051Z,62.69
2018-06-14T12:02:46.550Z,62.76
2018-06-14T12:03:46.227Z,62.76
2018-06-14T12:04:46.288Z,62.78
2018-06-14T12:05:46.561Z,62.75
2018-06-14T12:06:46.323Z,62.76
2018-06-14T12:07:46.450Z,62.75
2018-06-14T12:08:46.608Z,62.66
2018-06-14T12:09:46.275Z,62.66
2018-06-14T12:10:46.428Z,62.73
2018-06-14T12:11:46.473Z,62.73
2018-06-14T12:12:46.408Z,62.73
2018-06-14T12:13:46.515Z,62.72
2018-06-14T12:14:46.404Z,62.71
2018-06-14T12:15:46.320Z,62.63
2018-06-14T12:16:46.390Z,62.67
2018-06-14T12:17:46.485Z,62.72
2018-06-14T12:18:46.234Z,62.65
2018-06-14T12:19:46.405Z,62.69
2018-06-14T12:20:46.419Z,62.65
2018-06-14T12:21:46.460Z,62.58
2018-06-14T12:22:46.483Z,62.65
2018-06-14T12:23:46.546Z,62.65
2018-06-14T12:24:46.441Z,62.64
2018-06-14T12:25:46.359Z,62.66
2018-06-14T12:26:46.487Z,62.67
2018-06-14T12:27:46.289Z,62.57
2018-06-14T12:28:46.329Z,62.62
2018-06-14T12:29:46.326Z,62.61
2018-06-14T12:30:46.652Z,62.7
2018-06-14T12:31:47.120Z,62.64
2018-06-14T12:32:46.378Z,62.62
2018-06-14T12:33:46.523Z,62.64
2018-06-14T12:34:46.422Z,62.67
2018-06-14T12:35:46.455Z,62.59
2018-06-14T12:36:46.827Z,62.66
2018-06-14T12:37:47.171Z,62.62
2018-06-14T12:38:46.380Z,62.59
2018-06-14T12:39:46.453Z,62.64
2018-06-14T12:40:46.242Z,62.6
2018-06-14T12:41:46.459Z,62.63
2018-06-14T12:42:46.408Z,62.61
2018-06-14T12:43:46.364Z,62.59
2018-06-14T12:44:46.421Z,62.58
2018-06-14T12:45:46.488Z,62.48
2018-06-14T12:46:46.535Z,62.51
2018-06-14T12:47:46.427Z,62.57
2018-06-14T12:48:46.253Z,62.62
2018-06-14T12:49:46.454Z,62.62
2018-06-14T12:50:46.380Z,62.65
2018-06-14T12:51:46.372Z,62.65
2018-06-14T12:52:46.482Z,62.64
2018-06-14T12:53:46.738Z,62.66
2018-06-14T12:54:46.313Z,62.6
2018-06-14T12:55:46.373Z,62.6